createdAt,value
2018-11-12T00:01:04.039Z,22.05
2018-11-12T00:03:32.451Z,22.06
2018-11-12T00:06:00.836Z,22.07
2018-11-12T00:08:29.244Z,22.07
2018-11-12T00:10:57.662Z,22.05
2018-11-12T00:13:26.165Z,22.04
2018-11-12T00:15:54.658Z,22.09
2018-11-12T00:18:23.059Z,22.07
2018-11-12T00:20:51.460Z,22.00
2018-11-12T00:23:19.951Z,22.07
2018-11-12T00:25:48.480Z,22.06
2018-11-12T00:28:16.871Z,22.03
2018-11-12T00:30:45.303Z,22.05
2018-11-12T00:33:13.710Z,22.04
2018-11-12T00:35:42.108Z,22.06
2018-11-12T00:38:10.895Z,22.05
2018-11-12T00:40:39.334Z,22.08
2018-11-12T00:43:07.806Z,22.00
2018-11-12T00:45:36.211Z,22.02
2018-11-12T00:48:04.594Z,22.02
2018-11-12T00:50:33.303Z,22.08
2018-11-12T00:53:01.713Z,21.94
2018-11-12T00:55:30.119Z,22.03
2018-11-12T00:57:58.527Z,22.08
2018-11-12T01:00:26.964Z,22.05
2018-11-12T01:02:55.563Z,21.95
2018-11-12T01:05:24.118Z,22.03
2018-11-12T01:07:52.520Z,22.07
2018-11-12T01:10:20.929Z,22.00
2018-11-12T01:12:49.310Z,22.04
2018-11-12T01:15:19.342Z,22.04
2018-11-12T01:17:47.720Z,22.06
2018-11-12T01:20:17.010Z,22.01
2018-11-12T01:22:45.482Z,21.98
2018-11-12T01:25:14.420Z,21.98
2018-11-12T01:27:43.579Z,22.02
2018-11-12T01:30:16.555Z,21.97
2018-11-12T01:32:45.175Z,22.02
2018-11-12T01:35:14.575Z,22.05
2018-11-12T01:37:43.228Z,21.99
2018-11-12T01:40:12.606Z,22.00
2018-11-12T01:42:41.267Z,22.04
2018-11-12T01:45:13.186Z,22.05
2018-11-12T01:47:42.015Z,22.04
2018-11-12T01:50:11.770Z,22.05
2018-11-12T01:52:40.369Z,22.09
2018-11-12T01:55:09.854Z,22.03
2018-11-12T01:57:38.230Z,21.98
2018-11-12T02:00:09.544Z,21.98
2018-11-12T02:02:38.189Z,21.95
2018-11-12T02:05:07.463Z,21.97
2018-11-12T02:07:36.050Z,22.05
2018-11-12T02:10:04.456Z,21.99
2018-11-12T02:12:32.855Z,21.91
2018-11-12T02:15:01.312Z,21.97
2018-11-12T02:17:29.753Z,22.02
2018-11-12T02:19:58.174Z,22.04
2018-11-12T02:22:26.722Z,21.97
2018-11-12T02:24:55.097Z,22.04
2018-11-12T02:27:23.742Z,22.00
2018-11-12T02:29:52.241Z,22.01
2018-11-12T02:32:20.643Z,22.04
2018-11-12T02:34:49.108Z,22.01
2018-11-12T02:37:17.523Z,22.03
2018-11-12T02:39:45.963Z,22.03
2018-11-12T02:42:14.423Z,21.96
2018-11-12T02:44:43.512Z,21.95
2018-11-12T02:47:12.101Z,22.02
2018-11-12T02:49:40.560Z,21.94
2018-11-12T02:52:09.077Z,22.00
2018-11-12T02:54:37.553Z,22.00
2018-11-12T02:57:06.217Z,22.02
2018-11-12T02:59:34.634Z,22.02
2018-11-12T03:02:03.057Z,21.96
2018-11-12T03:04:31.481Z,21.94
2018-11-12T03:07:00.053Z,21.94
2018-11-12T03:09:28.441Z,21.98
2018-11-12T03:11:56.824Z,22.01
2018-11-12T03:14:25.454Z,22.01
2018-11-12T03:16:54.011Z,22.01
2018-11-12T03:19:22.457Z,21.95
2018-11-12T03:21:50.870Z,21.95
2018-11-12T03:24:19.291Z,22.06
2018-11-12T03:26:47.691Z,21.94
2018-11-12T03:29:16.151Z,22.05
2018-11-12T03:31:44.606Z,21.94
2018-11-12T03:34:13.027Z,21.89
2018-11-12T03:36:41.594Z,21.97
2018-11-12T03:39:10.737Z,21.89
2018-11-12T03:41:39.513Z,21.95
2018-11-12T03:44:08.805Z,21.96
2018-11-12T03:46:37.209Z,21.91
2018-11-12T03:49:05.927Z,22.00
2018-11-12T03:51:34.364Z,21.90
2018-11-12T03:54:02.849Z,21.91
2018-11-12T03:56:31.295Z,21.92
2018-11-12T03:59:00.030Z,22.01
2018-11-12T04:01:32.558Z,21.95
2018-11-12T04:04:00.973Z,21.99
2018-11-12T04:06:29.616Z,21.97
2018-11-12T04:08:58.095Z,21.95
2018-11-12T04:11:26.491Z,21.98
2018-11-12T04:13:55.771Z,22.03
2018-11-12T04:16:24.148Z,21.85
2018-11-12T04:18:52.857Z,21.94
2018-11-12T04:21:21.285Z,21.96
2018-11-12T04:23:49.668Z,21.95
2018-11-12T04:26:18.112Z,22.01
2018-11-12T04:28:46.495Z,21.95
2018-11-12T04:31:14.969Z,21.96
2018-11-12T04:33:43.408Z,21.90
2018-11-12T04:36:11.800Z,21.88
2018-11-12T04:38:40.223Z,21.81
2018-11-12T04:41:08.671Z,21.96
2018-11-12T04:43:38.089Z,21.99
2018-11-12T04:46:06.863Z,21.95
2018-11-12T04:48:35.267Z,21.91
2018-11-12T04:51:03.651Z,21.93
2018-11-12T04:53:32.100Z,21.97
2018-11-12T04:56:00.627Z,21.94
2018-11-12T04:58:29.065Z,21.89
2018-11-12T05:00:57.462Z,21.94
2018-11-12T05:03:26.015Z,21.91
2018-11-12T05:05:54.560Z,21.88
2018-11-12T05:08:23.031Z,21.98
2018-11-12T05:10:51.904Z,21.91
2018-11-12T05:13:20.400Z,21.82
2018-11-12T05:15:48.855Z,21.89
2018-11-12T05:18:17.312Z,21.83
2018-11-12T05:20:45.768Z,21.93
2018-11-12T05:23:14.188Z,21.92
2018-11-12T05:25:42.845Z,21.87
2018-11-12T05:28:11.249Z,21.92
2018-11-12T05:30:39.665Z,21.89
2018-11-12T05:33:08.159Z,21.94
2018-11-12T05:35:36.618Z,21.92
2018-11-12T05:38:05.693Z,21.92
2018-11-12T05:40:34.100Z,21.91
2018-11-12T05:43:02.518Z,21.95
2018-11-12T05:45:31.125Z,21.99
2018-11-12T05:47:59.606Z,21.90
2018-11-12T05:50:29.398Z,21.88
2018-11-12T05:53:00.917Z,21.94
2018-11-12T05:55:30.295Z,21.85
2018-11-12T05:57:59.121Z,21.98
2018-11-12T06:00:29.348Z,21.95
2018-11-12T06:02:57.778Z,21.91
2018-11-12T06:05:26.269Z,21.95
2018-11-12T06:07:54.731Z,21.88
2018-11-12T06:10:25.483Z,21.94
2018-11-12T06:12:54.111Z,21.97
2018-11-12T06:15:22.535Z,21.89
2018-11-12T06:17:51.544Z,21.96
2018-11-12T06:20:21.547Z,21.91
2018-11-12T06:22:50.141Z,21.85
2018-11-12T06:25:19.763Z,21.91
2018-11-12T06:27:48.454Z,21.90
2018-11-12T06:30:19.399Z,21.94
2018-11-12T06:32:47.873Z,21.91
2018-11-12T06:35:16.857Z,21.91
2018-11-12T06:37:46.125Z,21.94
2018-11-12T06:40:23.239Z,13.97
2018-11-12T06:42:52.136Z,8.21
2018-11-12T06:45:32.343Z,7.88
2018-11-12T06:48:08.244Z,7.81
2018-11-12T06:51:02.161Z,7.83
2018-11-12T06:53:38.229Z,7.80
2018-11-12T06:56:13.742Z,7.78
2018-11-12T06:58:50.525Z,7.83
2018-11-12T07:01:25.456Z,7.89
2018-11-12T07:03:54.738Z,7.95
2018-11-12T07:06:23.510Z,8.03
2018-11-12T07:08:52.347Z,8.04
2018-11-12T07:14:15.554Z,8.18
2018-11-12T07:16:44.377Z,8.19
2018-11-12T07:19:13.105Z,8.28
2018-11-12T07:21:42.016Z,8.32
2018-11-12T07:24:10.719Z,8.37
2018-11-12T07:26:39.752Z,8.36
2018-11-12T07:29:08.847Z,8.43
2018-11-12T07:31:37.728Z,8.52
2018-11-12T07:34:06.546Z,8.35
2018-11-12T07:36:35.207Z,8.51
2018-11-12T07:41:46.085Z,8.57
2018-11-12T07:44:16.027Z,8.52
2018-11-12T07:46:44.656Z,8.63
2018-11-12T07:49:16.200Z,8.61
2018-11-12T07:51:44.845Z,8.56
2018-11-12T07:54:13.332Z,8.74
2018-11-12T07:56:42.514Z,8.68
2018-11-12T07:59:11.068Z,8.70
2018-11-12T08:01:43.878Z,8.72
2018-11-12T08:04:12.788Z,8.83
2018-11-12T08:06:41.467Z,9.16
2018-11-12T08:09:11.467Z,9.37
2018-11-12T08:11:40.460Z,9.79
2018-11-12T08:14:09.773Z,10.16
2018-11-12T08:16:38.685Z,10.61
2018-11-12T08:19:09.066Z,10.35
2018-11-12T08:21:37.696Z,9.72
2018-11-12T08:24:06.462Z,9.76
2018-11-12T08:26:36.440Z,9.77
2018-11-12T08:29:05.929Z,9.60
2018-11-12T08:31:34.867Z,9.73
2018-11-12T08:34:03.384Z,9.61
2018-11-12T08:36:32.978Z,9.63
2018-11-12T08:39:01.505Z,9.58
2018-11-12T08:41:30.320Z,9.59
2018-11-12T08:43:58.851Z,9.80
2018-11-12T08:46:27.376Z,9.72
2018-11-12T08:48:59.764Z,9.65
2018-11-12T08:51:28.342Z,9.75
2018-11-12T08:53:57.831Z,9.70
2018-11-12T08:56:28.469Z,9.92
2018-11-12T08:59:08.460Z,9.87
2018-11-12T09:01:48.185Z,9.83
2018-11-12T09:04:32.309Z,9.86
2018-11-12T09:07:01.488Z,9.81
2018-11-12T09:09:30.317Z,9.81
2018-11-12T09:11:58.924Z,9.80
2018-11-12T09:14:27.501Z,9.76
2018-11-12T09:16:56.438Z,9.65
2018-11-12T09:19:25.060Z,9.71
2018-11-12T09:21:54.488Z,9.51
2018-11-12T09:24:27.995Z,9.48
2018-11-12T09:26:58.814Z,9.53
2018-11-12T09:29:29.196Z,9.61
2018-11-12T09:31:57.787Z,9.54
2018-11-12T09:34:26.411Z,9.55
2018-11-12T09:36:55.232Z,9.67
2018-11-12T09:39:23.864Z,9.77
2018-11-12T09:41:58.710Z,9.79
2018-11-12T09:44:36.057Z,10.03
2018-11-12T09:47:12.315Z,10.01
2018-11-12T09:49:50.052Z,10.36
2018-11-12T09:52:19.149Z,10.54
2018-11-12T09:54:47.772Z,10.68
2018-11-12T09:57:17.034Z,11.36
2018-11-12T09:59:45.816Z,11.22
2018-11-12T10:02:15.346Z,11.24
2018-11-12T10:04:44.639Z,11.38
2018-11-12T10:07:14.764Z,11.04
2018-11-12T10:09:52.991Z,10.96
2018-11-12T10:12:23.617Z,11.22
2018-11-12T10:14:52.896Z,11.42
2018-11-12T10:17:22.916Z,11.35
2018-11-12T10:19:48.082Z,11.63
2018-11-12T10:22:17.194Z,11.63
2018-11-12T10:24:45.829Z,11.87
2018-11-12T10:27:16.241Z,12.24
2018-11-12T10:29:44.962Z,13.93
2018-11-12T10:32:13.784Z,14.64
2018-11-12T10:34:42.413Z,14.53
2018-11-12T10:37:13.284Z,15.19
2018-11-12T10:39:42.489Z,16.70
2018-11-12T10:42:26.899Z,15.01
2018-11-12T10:44:56.337Z,16.20
2018-11-12T10:47:26.291Z,15.17
2018-11-12T10:49:56.540Z,14.73
2018-11-12T10:52:25.489Z,14.90
2018-11-12T10:55:04.889Z,14.95
2018-11-12T10:57:22.874Z,15.51
2018-11-12T10:59:52.885Z,15.84
2018-11-12T11:02:27.090Z,16.15
2018-11-12T11:04:57.358Z,17.23
2018-11-12T11:07:26.194Z,17.01
2018-11-12T11:09:55.832Z,17.66
2018-11-12T11:12:25.316Z,17.49
2018-11-12T11:14:54.229Z,18.49
2018-11-12T11:17:24.187Z,18.09
2018-11-12T11:19:52.970Z,18.14
2018-11-12T11:22:21.790Z,18.84
2018-11-12T11:24:50.617Z,18.37
2018-11-12T11:27:19.355Z,18.88
2018-11-12T11:29:48.437Z,18.34
2018-11-12T11:32:17.268Z,18.01
2018-11-12T11:34:46.199Z,16.22
2018-11-12T11:37:19.366Z,15.71
2018-11-12T11:39:48.263Z,15.51
2018-11-12T11:42:16.969Z,15.16
2018-11-12T11:44:45.661Z,15.51
2018-11-12T11:47:15.289Z,15.44
2018-11-12T11:49:44.068Z,16.17
2018-11-12T11:52:12.958Z,16.18
2018-11-12T11:54:41.608Z,16.52
2018-11-12T11:57:10.982Z,16.96
2018-11-12T11:59:39.793Z,17.06
2018-11-12T12:02:10.317Z,17.46
2018-11-12T12:04:39.411Z,17.02
2018-11-12T12:07:08.164Z,17.27
2018-11-12T12:09:37.621Z,17.88
2018-11-12T12:12:07.790Z,16.56
2018-11-12T12:14:38.912Z,17.23
2018-11-12T12:17:08.624Z,17.52
2018-11-12T12:19:37.821Z,16.59
2018-11-12T12:22:07.579Z,16.49
2018-11-12T12:24:36.829Z,16.35
2018-11-12T12:27:06.651Z,16.69
2018-11-12T12:29:35.947Z,16.19
2018-11-12T12:32:04.636Z,16.33
2018-11-12T12:34:35.023Z,16.58
2018-11-12T12:37:05.744Z,16.22
2018-11-12T12:39:36.098Z,15.88
2018-11-12T12:42:06.767Z,15.42
2018-11-12T12:44:36.184Z,15.81
2018-11-12T12:47:06.852Z,15.62
2018-11-12T12:49:36.936Z,15.60
2018-11-12T12:52:09.199Z,15.83
2018-11-12T12:54:44.568Z,15.62
2018-11-12T12:57:14.739Z,15.66
2018-11-12T12:59:48.141Z,15.45
2018-11-12T13:02:17.380Z,15.18
2018-11-12T13:04:56.713Z,15.69
2018-11-12T13:07:32.632Z,15.05
2018-11-12T13:10:06.881Z,15.27
2018-11-12T13:12:36.373Z,15.93
2018-11-12T13:15:11.299Z,15.79
2018-11-12T13:17:41.354Z,14.99
2018-11-12T13:20:15.270Z,14.70
2018-11-12T13:22:45.453Z,14.91
2018-11-12T13:25:17.554Z,14.91
2018-11-12T13:27:49.463Z,14.46
2018-11-12T13:30:22.764Z,14.06
2018-11-12T13:32:52.039Z,14.39
2018-11-12T13:35:22.237Z,14.56
2018-11-12T13:37:51.080Z,14.22
2018-11-12T13:40:23.832Z,14.81
2018-11-12T13:42:54.788Z,14.62
2018-11-12T13:45:23.746Z,13.75
2018-11-12T13:47:52.621Z,13.74
2018-11-12T13:50:22.344Z,13.47
2018-11-12T13:52:51.424Z,13.20
2018-11-12T13:55:20.877Z,13.50
2018-11-12T13:57:49.415Z,12.59
2018-11-12T14:00:19.665Z,12.02
2018-11-12T14:02:48.763Z,11.65
2018-11-12T14:05:18.697Z,11.60
2018-11-12T14:07:47.555Z,11.62
2018-11-12T14:10:22.979Z,11.47
2018-11-12T14:12:52.452Z,11.54
2018-11-12T14:15:22.228Z,11.35
2018-11-12T14:17:51.377Z,11.34
2018-11-12T14:20:20.734Z,11.30
2018-11-12T14:22:49.306Z,11.29
2018-11-12T14:25:18.796Z,11.21
2018-11-12T14:27:48.917Z,11.13
2018-11-12T14:30:18.929Z,11.13
2018-11-12T14:32:47.591Z,11.09
2018-11-12T14:35:16.182Z,11.04
2018-11-12T14:37:45.943Z,11.00
2018-11-12T14:40:15.725Z,10.92
2018-11-12T14:42:44.653Z,10.83
2018-11-12T14:45:14.939Z,10.82
2018-11-12T14:47:44.111Z,10.77
2018-11-12T14:50:12.850Z,10.73
2018-11-12T14:52:41.598Z,10.69
2018-11-12T14:55:11.897Z,10.67
2018-11-12T14:57:40.638Z,10.62
2018-11-12T15:00:15.460Z,10.57
2018-11-12T15:02:44.077Z,10.54
2018-11-12T15:05:13.123Z,10.47
2018-11-12T15:07:43.002Z,10.48
2018-11-12T15:10:12.523Z,10.46
2018-11-12T15:12:41.101Z,10.42
2018-11-12T15:15:10.907Z,10.39
2018-11-12T15:17:39.908Z,10.35
2018-11-12T15:20:11.281Z,10.31
2018-11-12T15:22:40.148Z,10.31
2018-11-12T15:25:12.343Z,10.23
2018-11-12T15:27:41.095Z,10.24
2018-11-12T15:30:12.142Z,10.17
2018-11-12T15:32:41.411Z,10.15
2018-11-12T15:35:10.861Z,10.13
2018-11-12T15:37:39.844Z,10.13
2018-11-12T15:40:09.495Z,10.05
2018-11-12T15:42:39.028Z,10.08
2018-11-12T15:45:09.750Z,10.07
2018-11-12T15:47:38.372Z,10.03
2018-11-12T15:50:22.985Z,10.04
2018-11-12T15:52:51.705Z,9.99
2018-11-12T15:55:21.719Z,10.04
2018-11-12T15:57:50.297Z,10.01
2018-11-12T16:00:18.904Z,9.95
2018-11-12T16:02:47.586Z,9.97
2018-11-12T16:05:16.182Z,9.98
2018-11-12T16:07:51.171Z,10.01
2018-11-12T16:10:23.441Z,10.05
2018-11-12T16:12:55.231Z,9.99
2018-11-12T16:15:25.875Z,10.00
2018-11-12T16:17:55.730Z,10.08
2018-11-12T16:20:28.362Z,10.10
2018-11-12T16:22:59.308Z,10.05
2018-11-12T16:25:28.979Z,10.04
2018-11-12T16:27:59.010Z,10.01
2018-11-12T16:30:28.949Z,9.99
2018-11-12T16:33:00.172Z,9.98
2018-11-12T16:35:29.393Z,9.96
2018-11-12T16:37:58.585Z,10.00
2018-11-12T16:40:27.319Z,9.97
2018-11-12T16:42:56.799Z,10.01
2018-11-12T16:45:25.590Z,10.04
2018-11-12T16:47:55.752Z,9.92
2018-11-12T16:50:24.683Z,9.95
2018-11-12T16:52:53.657Z,9.91
2018-11-12T16:55:23.709Z,9.89
2018-11-12T16:57:54.092Z,9.93
2018-11-12T17:00:24.611Z,9.89
2018-11-12T17:02:53.385Z,9.95
2018-11-12T17:05:23.745Z,9.91
2018-11-12T17:07:52.728Z,9.85
2018-11-12T17:10:23.338Z,9.91
2018-11-12T17:12:52.375Z,9.85
2018-11-12T17:15:21.893Z,9.90
2018-11-12T17:17:50.772Z,9.85
2018-11-12T17:20:20.817Z,9.84
2018-11-12T17:22:49.635Z,9.84
2018-11-12T17:25:18.934Z,9.85
2018-11-12T17:27:48.589Z,9.83
2018-11-12T17:30:20.581Z,9.82
2018-11-12T17:32:50.095Z,9.82
2018-11-12T17:35:20.017Z,9.83
2018-11-12T17:37:49.216Z,9.82
2018-11-12T17:40:21.167Z,9.83
2018-11-12T17:42:50.832Z,9.73
2018-11-12T17:45:21.718Z,9.75
2018-11-12T17:47:52.981Z,9.73
2018-11-12T17:50:21.962Z,9.69
2018-11-12T17:52:51.041Z,9.63
2018-11-12T17:55:19.814Z,9.68
2018-11-12T17:57:48.970Z,9.62
2018-11-12T18:00:21.957Z,9.58
2018-11-12T18:02:50.628Z,9.65
2018-11-12T18:05:20.337Z,9.63
2018-11-12T18:07:49.059Z,9.61
2018-11-12T18:10:18.641Z,9.56
2018-11-12T18:12:47.240Z,9.60
2018-11-12T18:15:17.326Z,9.55
2018-11-12T18:17:45.990Z,9.54
2018-11-12T18:20:20.332Z,9.55
2018-11-12T18:22:49.641Z,9.56
2018-11-12T18:25:18.722Z,9.60
2018-11-12T18:27:47.682Z,9.61
2018-11-12T18:30:18.898Z,9.59
2018-11-12T18:32:50.000Z,9.59
2018-11-12T18:35:18.989Z,9.58
2018-11-12T18:37:47.826Z,9.57
2018-11-12T18:40:19.717Z,9.63
2018-11-12T18:42:48.764Z,9.60
2018-11-12T18:45:19.867Z,9.56
2018-11-12T18:47:50.511Z,9.61
2018-11-12T18:50:22.137Z,9.62
2018-11-12T18:52:50.786Z,9.70
2018-11-12T18:55:19.426Z,9.70
2018-11-12T18:57:49.297Z,9.73
2018-11-12T19:00:19.452Z,9.73
2018-11-12T19:02:48.641Z,9.73
2018-11-12T19:05:23.483Z,9.71
2018-11-12T19:07:53.544Z,9.72
2018-11-12T19:10:29.800Z,9.67
2018-11-12T19:12:58.933Z,9.64
2018-11-12T19:15:30.663Z,9.66
2018-11-12T19:18:02.404Z,9.64
2018-11-12T19:20:31.128Z,9.59
2018-11-12T19:22:59.870Z,9.64
2018-11-12T19:25:28.620Z,9.59
2018-11-12T19:27:58.930Z,9.52
2018-11-12T19:30:28.619Z,9.56
2018-11-12T19:32:57.460Z,9.56
2018-11-12T19:35:27.849Z,9.56
2018-11-12T19:37:57.490Z,9.59
2018-11-12T19:40:27.826Z,9.54
2018-11-12T19:42:56.980Z,9.51
2018-11-12T19:45:25.644Z,9.49
2018-11-12T19:47:54.654Z,9.45
2018-11-12T19:50:24.558Z,9.48
2018-11-12T19:52:54.531Z,9.45
2018-11-12T19:55:23.181Z,9.45
2018-11-12T19:57:51.851Z,9.45
2018-11-12T20:00:22.259Z,9.43
2018-11-12T20:02:52.074Z,9.42
2018-11-12T20:05:20.720Z,9.32
2018-11-12T20:07:49.348Z,9.32
2018-11-12T20:10:20.951Z,9.39
2018-11-12T20:12:49.773Z,9.34
2018-11-12T20:15:19.610Z,9.29
2018-11-12T20:17:49.201Z,9.33
2018-11-12T20:20:23.583Z,9.30
2018-11-12T20:22:52.616Z,9.31
2018-11-12T20:25:21.678Z,9.34
2018-11-12T20:27:51.438Z,9.35
2018-11-12T20:30:26.054Z,9.34
2018-11-12T20:32:54.753Z,9.34
2018-11-12T20:35:23.442Z,9.35
2018-11-12T20:37:52.464Z,9.34
2018-11-12T20:40:21.472Z,9.42
2018-11-12T20:42:50.743Z,9.52
2018-11-12T20:45:20.598Z,9.49
2018-11-12T20:47:50.427Z,9.39
2018-11-12T20:50:19.169Z,9.38
2018-11-12T20:52:47.876Z,9.33
2018-11-12T20:55:17.300Z,9.34
2018-11-12T20:57:46.553Z,9.37
2018-11-12T21:00:18.627Z,9.37
2018-11-12T21:02:48.736Z,9.37
2018-11-12T21:05:17.725Z,9.35
2018-11-12T21:07:46.361Z,9.31
2018-11-12T21:10:16.311Z,9.32
2018-11-12T21:12:45.224Z,9.37
2018-11-12T21:15:14.953Z,9.31
2018-11-12T21:17:43.880Z,9.32
2018-11-12T21:20:14.545Z,9.41
2018-11-12T21:22:43.457Z,9.41
2018-11-12T21:25:13.365Z,9.55
2018-11-12T21:27:42.058Z,9.43
2018-11-12T21:30:20.535Z,9.37
2018-11-12T21:32:49.584Z,9.32
2018-11-12T21:35:18.311Z,9.39
2018-11-12T21:37:47.925Z,9.38
2018-11-12T21:40:18.617Z,9.49
2018-11-12T21:42:47.232Z,9.50
2018-11-12T21:45:17.337Z,9.52
2018-11-12T21:47:46.728Z,9.60
2018-11-12T21:50:17.597Z,9.62
2018-11-12T21:52:46.242Z,9.72
2018-11-12T21:55:14.962Z,9.72
2018-11-12T21:57:44.357Z,9.68
2018-11-12T22:01:19.743Z,9.65
2018-11-12T22:03:49.156Z,9.62
2018-11-12T22:06:18.732Z,9.67
2018-11-12T22:08:47.525Z,9.67
2018-11-12T22:11:16.200Z,9.58
2018-11-12T22:13:44.841Z,9.59
2018-11-12T22:16:13.506Z,9.51
2018-11-12T22:18:42.270Z,9.55
2018-11-12T22:21:10.883Z,9.60
2018-11-12T22:23:43.204Z,9.64
2018-11-12T22:26:11.814Z,9.56
2018-11-12T22:28:40.418Z,9.50
2018-11-12T22:31:08.976Z,9.52
2018-11-12T22:33:37.616Z,9.49
2018-11-12T22:36:06.299Z,9.45
2018-11-12T22:38:34.864Z,9.52
2018-11-12T22:41:03.547Z,9.46
2018-11-12T22:43:32.117Z,9.46
2018-11-12T22:46:00.826Z,9.39
2018-11-12T22:48:29.603Z,9.34
2018-11-12T22:50:58.151Z,9.36
2018-11-12T22:53:26.810Z,9.38
2018-11-12T22:55:56.363Z,9.47
2018-11-12T22:58:25.012Z,9.49
2018-11-12T23:00:54.042Z,9.52
2018-11-12T23:03:22.657Z,9.55
2018-11-12T23:05:55.452Z,9.53
2018-11-12T23:08:24.082Z,9.48
2018-11-12T23:10:52.791Z,9.48
2018-11-12T23:13:21.537Z,9.47
2018-11-12T23:15:50.180Z,9.45
2018-11-12T23:18:18.849Z,9.37
2018-11-12T23:20:47.555Z,9.30
2018-11-12T23:23:16.376Z,9.22
2018-11-12T23:25:45.545Z,9.22
2018-11-12T23:28:15.000Z,9.26
2018-11-12T23:30:43.819Z,9.32
2018-11-12T23:33:12.440Z,9.30
2018-11-12T23:35:41.431Z,9.33
2018-11-12T23:38:10.253Z,9.31
2018-11-12T23:40:39.076Z,9.38
2018-11-12T23:43:07.604Z,9.39
2018-11-12T23:45:36.435Z,9.41
2018-11-12T23:48:05.191Z,9.39
2018-11-12T23:50:33.921Z,9.38
2018-11-12T23:53:03.045Z,9.35
2018-11-12T23:55:33.340Z,9.31
2018-11-12T23:58:01.955Z,9.27
